createdAt,value
2023-04-29T00:00:43.447Z, 40.95
2023-04-29T00:01:43.441Z, 40.91
2023-04-29T00:02:43.568Z, 40.94
2023-04-29T00:03:43.539Z, 40.91
2023-04-29T00:04:43.682Z, 40.91
2023-04-29T00:05:43.652Z, 40.90
2023-04-29T00:06:43.453Z, 40.92
2023-04-29T00:07:43.490Z, 40.92
2023-04-29T00:08:43.477Z, 40.93
2023-04-29T00:09:43.499Z, 40.91
2023-04-29T00:10:43.493Z, 40.88
2023-04-29T00:11:43.506Z, 40.83
2023-04-29T00:12:43.609Z, 40.75
2023-04-29T00:13:43.579Z, 40.73
2023-04-29T00:14:43.576Z, 40.72
2023-04-29T00:15:43.578Z, 40.72
2023-04-29T00:16:43.638Z, 40.71
2023-04-29T00:17:43.769Z, 40.72
2023-04-29T00:18:43.650Z, 40.74
2023-04-29T00:19:43.692Z, 40.72
2023-04-29T00:20:43.734Z, 40.71
2023-04-29T00:21:43.669Z, 40.70
2023-04-29T00:22:43.676Z, 40.73
2023-04-29T00:23:43.669Z, 40.72
2023-04-29T00:24:43.691Z, 40.68
2023-04-29T00:25:43.680Z, 40.67
2023-04-29T00:26:43.705Z, 40.68
2023-04-29T00:27:43.711Z, 40.67
2023-04-29T00:28:43.796Z, 40.63
2023-04-29T00:29:43.783Z, 40.62
2023-04-29T00:30:43.807Z, 40.57
2023-04-29T00:31:43.778Z, 40.60
2023-04-29T00:32:43.858Z, 40.55
2023-04-29T00:33:43.781Z, 40.50
2023-04-29T00:34:43.782Z, 40.48
2023-04-29T00:35:43.864Z, 40.56
2023-04-29T00:36:43.842Z, 40.57
2023-04-29T00:37:43.904Z, 40.55
2023-04-29T00:38:43.871Z, 40.56
2023-04-29T00:39:43.870Z, 40.56
2023-04-29T00:40:43.885Z, 40.53
2023-04-29T00:41:43.899Z, 40.46
2023-04-29T00:42:43.992Z, 40.48
2023-04-29T00:43:43.948Z, 40.42
2023-04-29T00:44:43.980Z, 40.44
2023-04-29T00:45:44.020Z, 40.44
2023-04-29T00:46:44.010Z, 40.44
2023-04-29T00:47:44.028Z, 40.39
2023-04-29T00:48:43.978Z, 40.43
2023-04-29T00:49:43.995Z, 40.41
2023-04-29T00:50:43.997Z, 40.39
2023-04-29T00:51:44.011Z, 40.37
2023-04-29T00:52:44.027Z, 40.39
2023-04-29T00:53:44.022Z, 40.35
2023-04-29T00:54:44.046Z, 40.31
2023-04-29T00:55:44.080Z, 40.27
2023-04-29T00:56:44.061Z, 40.24
2023-04-29T00:57:44.128Z, 40.25
2023-04-29T00:58:44.106Z, 40.25
2023-04-29T00:59:44.101Z, 40.22
2023-04-29T01:00:44.191Z, 40.24
2023-04-29T01:01:44.167Z, 40.25
2023-04-29T01:02:44.283Z, 40.23
2023-04-29T01:03:44.293Z, 40.24
2023-04-29T01:04:44.346Z, 40.19
2023-04-29T01:05:44.203Z, 40.24
2023-04-29T01:06:44.231Z, 40.21
2023-04-29T01:07:44.274Z, 40.20
2023-04-29T01:08:44.261Z, 40.22
2023-04-29T01:09:44.305Z, 40.24
2023-04-29T01:10:44.282Z, 40.22
2023-04-29T01:11:44.317Z, 40.24
2023-04-29T01:12:44.292Z, 40.18
2023-04-29T01:13:44.350Z, 40.22
2023-04-29T01:14:44.290Z, 40.16
2023-04-29T01:15:44.313Z, 40.16
2023-04-29T01:16:44.308Z, 40.14
2023-04-29T01:17:44.342Z, 40.09
2023-04-29T01:18:44.381Z, 40.08
2023-04-29T01:19:44.356Z, 40.09
2023-04-29T01:20:44.391Z, 40.12
2023-04-29T01:21:44.374Z, 40.07
2023-04-29T01:22:44.378Z, 40.03
2023-04-29T01:23:44.389Z, 40.08
2023-04-29T01:24:44.455Z, 40.04
2023-04-29T01:25:44.505Z, 40.00
2023-04-29T01:26:44.476Z, 39.96
2023-04-29T01:27:44.465Z, 39.95
2023-04-29T01:28:44.523Z, 39.98
2023-04-29T01:29:44.485Z, 39.95
2023-04-29T01:30:44.556Z, 39.87
2023-04-29T01:31:44.570Z, 39.90
2023-04-29T01:32:44.653Z, 39.87
2023-04-29T01:33:44.581Z, 39.91
2023-04-29T01:34:44.590Z, 39.91
2023-04-29T01:35:44.582Z, 39.92
2023-04-29T01:36:44.640Z, 39.89
2023-04-29T01:37:44.613Z, 39.85
2023-04-29T01:38:44.620Z, 39.82
2023-04-29T01:39:44.671Z, 39.79
2023-04-29T01:40:44.658Z, 39.82
2023-04-29T01:41:44.728Z, 39.82
2023-04-29T01:42:44.679Z, 39.79
2023-04-29T01:43:44.675Z, 39.73
2023-04-29T01:44:44.719Z, 39.70
2023-04-29T01:45:44.711Z, 39.70
2023-04-29T01:46:44.824Z, 39.73
2023-04-29T01:47:44.711Z, 39.74
2023-04-29T01:48:44.728Z, 39.73
2023-04-29T01:49:44.714Z, 39.71
2023-04-29T01:50:44.752Z, 39.67
2023-04-29T01:51:44.746Z, 39.63
2023-04-29T01:52:44.770Z, 39.67
2023-04-29T01:53:44.778Z, 39.66
2023-04-29T01:54:44.768Z, 39.67
2023-04-29T01:55:44.847Z, 39.65
2023-04-29T01:56:44.826Z, 39.62
2023-04-29T01:57:44.860Z, 39.62
2023-04-29T01:58:44.843Z, 39.60
2023-04-29T01:59:44.919Z, 39.61
2023-04-29T02:00:44.936Z, 39.55
2023-04-29T02:01:44.905Z, 39.58
2023-04-29T02:02:45.085Z, 39.60
2023-04-29T02:03:45.120Z, 39.57
2023-04-29T02:04:45.000Z, 39.59
2023-04-29T02:05:44.969Z, 39.51
2023-04-29T02:06:45.010Z, 39.56
2023-04-29T02:07:44.987Z, 39.55
2023-04-29T02:08:44.986Z, 39.55
2023-04-29T02:09:44.983Z, 39.48
2023-04-29T02:10:44.979Z, 39.51
2023-04-29T02:11:45.055Z, 39.50
2023-04-29T02:12:45.028Z, 39.46
2023-04-29T02:13:45.084Z, 39.49
2023-04-29T02:14:45.058Z, 39.51
2023-04-29T02:15:45.054Z, 39.53
2023-04-29T02:16:45.102Z, 39.45
2023-04-29T02:17:45.135Z, 39.45
2023-04-29T02:18:45.090Z, 39.44
2023-04-29T02:19:45.105Z, 39.45
2023-04-29T02:20:45.182Z, 39.42
2023-04-29T02:21:45.166Z, 39.44
2023-04-29T02:22:45.161Z, 39.44
2023-04-29T02:23:45.149Z, 39.38
2023-04-29T02:24:45.168Z, 39.35
2023-04-29T02:25:45.260Z, 39.34
2023-04-29T02:26:45.221Z, 39.25
2023-04-29T02:27:45.287Z, 39.28
2023-04-29T02:28:45.243Z, 39.28
2023-04-29T02:29:45.266Z, 39.30
2023-04-29T02:30:45.317Z, 39.24
2023-04-29T02:31:45.294Z, 39.24
2023-04-29T02:32:45.395Z, 39.29
2023-04-29T02:33:45.317Z, 39.28
2023-04-29T02:34:45.362Z, 39.30
2023-04-29T02:35:45.329Z, 39.32
2023-04-29T02:36:45.318Z, 39.26
2023-04-29T02:37:45.318Z, 39.23
2023-04-29T02:38:45.320Z, 39.29
2023-04-29T02:39:45.390Z, 39.20
2023-04-29T02:40:45.384Z, 39.20
2023-04-29T02:41:45.382Z, 39.22
2023-04-29T02:42:45.385Z, 39.18
2023-04-29T02:43:45.403Z, 39.16
2023-04-29T02:44:45.400Z, 39.15
2023-04-29T02:45:45.450Z, 39.13
2023-04-29T02:46:45.440Z, 39.13
2023-04-29T02:47:45.464Z, 39.17
2023-04-29T02:48:45.513Z, 39.12
2023-04-29T02:49:45.478Z, 39.16
2023-04-29T02:50:45.544Z, 39.15
2023-04-29T02:51:45.525Z, 39.16
2023-04-29T02:52:45.536Z, 39.14
2023-04-29T02:53:45.536Z, 39.09
2023-04-29T02:54:45.537Z, 39.09
2023-04-29T02:55:45.549Z, 39.07
2023-04-29T02:56:45.558Z, 39.04
2023-04-29T02:57:45.667Z, 39.04
2023-04-29T02:58:45.627Z, 38.99
2023-04-29T02:59:45.659Z, 38.99
2023-04-29T03:00:45.655Z, 38.99
2023-04-29T03:01:45.743Z, 39.01
2023-04-29T03:02:45.809Z, 38.98
2023-04-29T03:03:45.793Z, 38.98
2023-04-29T03:04:45.666Z, 38.95
2023-04-29T03:05:45.663Z, 38.95
2023-04-29T03:06:45.656Z, 38.94
2023-04-29T03:07:45.676Z, 38.92
2023-04-29T03:08:45.693Z, 38.97
2023-04-29T03:09:45.713Z, 38.93
2023-04-29T03:10:45.723Z, 38.88
2023-04-29T03:11:45.730Z, 38.86
2023-04-29T03:12:45.729Z, 38.85
2023-04-29T03:13:45.766Z, 38.87
2023-04-29T03:14:45.856Z, 38.85
2023-04-29T03:15:45.838Z, 38.79
2023-04-29T03:16:45.902Z, 38.73
2023-04-29T03:17:45.905Z, 38.77
2023-04-29T03:18:45.900Z, 38.77
2023-04-29T03:19:45.862Z, 38.78
2023-04-29T03:20:45.865Z, 38.80
2023-04-29T03:21:45.867Z, 38.81
2023-04-29T03:22:45.862Z, 38.81
2023-04-29T03:23:45.944Z, 38.82
2023-04-29T03:24:45.911Z, 38.82
2023-04-29T03:25:46.029Z, 38.81
2023-04-29T03:26:45.946Z, 38.80
2023-04-29T03:27:45.996Z, 38.78
2023-04-29T03:28:45.975Z, 38.75
2023-04-29T03:29:45.989Z, 38.68
2023-04-29T03:30:45.976Z, 38.65
2023-04-29T03:31:46.093Z, 39.65
2023-04-29T03:32:46.015Z, 40.89
2023-04-29T03:33:45.990Z, 41.80
2023-04-29T03:34:46.082Z, 42.08
2023-04-29T03:35:46.045Z, 42.30
2023-04-29T03:36:46.112Z, 42.44
2023-04-29T03:37:46.076Z, 42.50
2023-04-29T03:38:46.083Z, 42.56
2023-04-29T03:39:46.083Z, 42.64
2023-04-29T03:40:46.087Z, 42.66
2023-04-29T03:41:46.397Z, 42.70
2023-04-29T03:42:46.143Z, 42.72
2023-04-29T03:43:46.217Z, 42.74
2023-04-29T03:44:46.188Z, 42.76
2023-04-29T03:45:46.412Z, 42.73
2023-04-29T03:46:46.424Z, 42.72
2023-04-29T03:47:46.454Z, 42.73
2023-04-29T03:48:46.412Z, 42.74
2023-04-29T03:49:46.288Z, 42.68
2023-04-29T03:50:46.393Z, 42.68
2023-04-29T03:51:46.401Z, 42.65
2023-04-29T03:52:46.394Z, 42.61
2023-04-29T03:53:46.397Z, 42.52
2023-04-29T03:54:46.274Z, 42.51
2023-04-29T03:55:46.336Z, 42.48
2023-04-29T03:56:46.421Z, 42.37
2023-04-29T03:57:46.358Z, 42.33
2023-04-29T03:58:46.496Z, 42.28
2023-04-29T03:59:46.370Z, 42.26
2023-04-29T04:00:46.387Z, 42.24
2023-04-29T04:01:46.407Z, 42.22
2023-04-29T04:02:46.510Z, 42.16
2023-04-29T04:03:46.581Z, 42.08
2023-04-29T04:04:46.613Z, 42.00
2023-04-29T04:05:46.479Z, 41.94
2023-04-29T04:06:46.474Z, 41.89
2023-04-29T04:07:46.462Z, 41.83
2023-04-29T04:08:46.473Z, 41.78
2023-04-29T04:09:46.479Z, 41.73
2023-04-29T04:10:46.508Z, 41.66
2023-04-29T04:11:46.503Z, 41.61
2023-04-29T04:12:46.521Z, 41.57
2023-04-29T04:13:46.514Z, 41.53
2023-04-29T04:14:46.520Z, 41.48
2023-04-29T04:15:46.594Z, 41.42
2023-04-29T04:16:46.626Z, 41.38
2023-04-29T04:17:46.584Z, 41.34
2023-04-29T04:18:46.584Z, 41.29
2023-04-29T04:19:46.579Z, 41.23
2023-04-29T04:20:46.634Z, 41.17
2023-04-29T04:21:46.589Z, 41.14
2023-04-29T04:22:46.674Z, 41.10
2023-04-29T04:23:46.678Z, 41.07
2023-04-29T04:24:46.703Z, 41.05
2023-04-29T04:25:46.676Z, 41.02
2023-04-29T04:26:46.670Z, 40.97
2023-04-29T04:27:46.755Z, 40.94
2023-04-29T04:28:46.743Z, 40.85
2023-04-29T04:29:46.787Z, 40.80
2023-04-29T04:30:46.751Z, 40.75
2023-04-29T04:31:47.318Z, 40.72
2023-04-29T04:32:46.835Z, 40.66
2023-04-29T04:33:46.827Z, 40.62
2023-04-29T04:34:46.807Z, 40.58
2023-04-29T04:35:46.800Z, 40.53
2023-04-29T04:36:46.819Z, 40.50
2023-04-29T04:37:46.824Z, 40.45
2023-04-29T04:38:46.820Z, 40.40
2023-04-29T04:39:46.853Z, 40.38
2023-04-29T04:40:46.845Z, 40.35
2023-04-29T04:41:46.851Z, 40.34
2023-04-29T04:42:46.863Z, 40.33
2023-04-29T04:43:46.876Z, 40.30
2023-04-29T04:44:46.958Z, 40.26
2023-04-29T04:45:46.986Z, 40.25
2023-04-29T04:46:46.934Z, 40.17
2023-04-29T04:47:46.985Z, 40.15
2023-04-29T04:48:46.926Z, 40.12
2023-04-29T04:49:47.021Z, 40.12
2023-04-29T04:50:46.966Z, 40.07
2023-04-29T04:51:47.017Z, 39.99
2023-04-29T04:52:47.004Z, 39.99
2023-04-29T04:53:46.998Z, 39.96
2023-04-29T04:54:47.017Z, 39.92
2023-04-29T04:55:47.061Z, 39.86
2023-04-29T04:56:47.102Z, 39.84
2023-04-29T04:57:47.082Z, 39.80
2023-04-29T04:58:47.138Z, 39.77
2023-04-29T04:59:47.152Z, 39.75
2023-04-29T05:00:47.135Z, 39.72
2023-04-29T05:01:47.118Z, 39.68
2023-04-29T05:02:47.247Z, 39.66
2023-04-29T05:03:47.212Z, 39.64
2023-04-29T05:04:47.189Z, 39.62
2023-04-29T05:05:47.220Z, 39.60
2023-04-29T05:06:47.189Z, 39.55
2023-04-29T05:07:47.177Z, 39.53
2023-04-29T05:08:47.250Z, 39.57
2023-04-29T05:09:47.198Z, 39.56
2023-04-29T05:10:47.274Z, 39.52
2023-04-29T05:11:47.250Z, 39.45
2023-04-29T05:12:47.241Z, 39.39
2023-04-29T05:13:47.346Z, 39.33
2023-04-29T05:14:47.318Z, 39.25
2023-04-29T05:15:47.344Z, 39.18
2023-04-29T05:16:47.335Z, 39.05
2023-04-29T05:17:47.432Z, 38.91
2023-04-29T05:18:47.353Z, 38.87
2023-04-29T05:19:47.363Z, 38.72
2023-04-29T05:20:47.362Z, 38.51
2023-04-29T05:21:47.360Z, 38.28
2023-04-29T05:22:47.385Z, 38.14
2023-04-29T05:23:47.389Z, 37.98
2023-04-29T05:24:47.469Z, 37.84
2023-04-29T05:25:47.447Z, 37.75
2023-04-29T05:26:47.455Z, 37.67
2023-04-29T05:27:47.435Z, 37.58
2023-04-29T05:28:47.455Z, 37.51
2023-04-29T05:29:47.485Z, 37.45
2023-04-29T05:30:47.587Z, 37.38
2023-04-29T05:31:47.535Z, 37.34
2023-04-29T05:32:47.569Z, 37.28
2023-04-29T05:33:47.516Z, 37.23
2023-04-29T05:34:47.505Z, 37.17
2023-04-29T05:35:47.504Z, 37.12
2023-04-29T05:36:47.519Z, 37.11
2023-04-29T05:37:47.538Z, 37.08
2023-04-29T05:38:47.645Z, 36.98
2023-04-29T05:39:47.652Z, 36.95
2023-04-29T05:40:47.624Z, 36.91
2023-04-29T05:41:47.659Z, 36.93
2023-04-29T05:42:47.620Z, 36.86
2023-04-29T05:43:47.696Z, 36.85
2023-04-29T05:44:47.662Z, 36.83
2023-04-29T05:45:47.775Z, 36.76
2023-04-29T05:46:47.709Z, 37.07
2023-04-29T05:47:47.729Z, 41.23
2023-04-29T05:48:47.702Z, 45.15
2023-04-29T05:49:47.752Z, 49.77
2023-04-29T05:50:47.796Z, 54.37
2023-04-29T05:51:47.784Z, 58.68
2023-04-29T05:52:47.800Z, 69.10
2023-04-29T05:53:47.788Z, 59.13
2023-04-29T05:54:47.790Z, 53.03
2023-04-29T05:55:49.702Z, 54.02
2023-04-29T05:56:47.801Z, 55.21
2023-04-29T05:57:47.803Z, 57.52
2023-04-29T05:58:47.815Z, 60.57
2023-04-29T05:59:47.904Z, 67.40
2023-04-29T06:00:47.864Z, 54.76
2023-04-29T06:01:47.907Z, 53.56
2023-04-29T06:02:58.243Z, 54.89
2023-04-29T06:03:48.227Z, 56.35
2023-04-29T06:04:48.214Z, 57.61
2023-04-29T06:05:48.324Z, 58.32
2023-04-29T06:06:47.989Z, 58.89
2023-04-29T06:07:48.015Z, 59.18
2023-04-29T06:08:47.964Z, 59.42
2023-04-29T06:09:48.105Z, 59.56
2023-04-29T06:10:48.023Z, 59.59
2023-04-29T06:11:48.012Z, 59.56
2023-04-29T06:12:47.999Z, 59.49
2023-04-29T06:13:48.015Z, 59.39
2023-04-29T06:14:47.998Z, 59.36
2023-04-29T06:15:48.048Z, 59.24
2023-04-29T06:16:48.027Z, 59.13
2023-04-29T06:17:48.169Z, 59.02
2023-04-29T06:18:48.119Z, 58.88
2023-04-29T06:19:48.081Z, 58.69
2023-04-29T06:20:48.146Z, 58.52
2023-04-29T06:21:48.156Z, 58.53
2023-04-29T06:22:48.162Z, 58.35
2023-04-29T06:23:48.139Z, 58.18
2023-04-29T06:24:48.142Z, 57.91
2023-04-29T06:25:48.135Z, 57.89
2023-04-29T06:26:48.144Z, 57.70
2023-04-29T06:27:48.136Z, 57.63
2023-04-29T06:28:48.226Z, 57.43
2023-04-29T06:29:48.198Z, 57.25
2023-04-29T06:30:48.199Z, 57.17
2023-04-29T06:31:48.337Z, 57.04
2023-04-29T06:32:48.318Z, 56.94
2023-04-29T06:33:48.302Z, 56.74
2023-04-29T06:34:48.279Z, 56.66
2023-04-29T06:35:48.325Z, 56.51
2023-04-29T06:36:48.314Z, 56.36
2023-04-29T06:37:48.357Z, 56.21
2023-04-29T06:38:48.342Z, 56.06
2023-04-29T06:39:48.337Z, 55.87
2023-04-29T06:40:48.325Z, 55.69
2023-04-29T06:41:48.400Z, 55.65
2023-04-29T06:42:48.405Z, 55.51
2023-04-29T06:43:49.035Z, 55.37
2023-04-29T06:44:48.409Z, 55.27
2023-04-29T06:45:48.411Z, 55.13
2023-04-29T06:46:48.431Z, 54.98
2023-04-29T06:47:48.462Z, 54.90
2023-04-29T06:48:48.400Z, 54.84
2023-04-29T06:49:48.508Z, 54.66
2023-04-29T06:50:48.461Z, 54.59
2023-04-29T06:51:48.507Z, 54.53
2023-04-29T06:52:48.502Z, 54.38
2023-04-29T06:53:48.492Z, 54.34
2023-04-29T06:54:48.534Z, 54.29
2023-04-29T06:55:48.504Z, 54.14
2023-04-29T06:56:48.595Z, 54.06
2023-04-29T06:57:48.558Z, 54.06
2023-04-29T06:58:48.617Z, 53.91
2023-04-29T06:59:48.600Z, 53.72
2023-04-29T07:00:48.681Z, 53.67
2023-04-29T07:01:49.939Z, 53.53
2023-04-29T07:02:48.767Z, 53.42
2023-04-29T07:03:48.949Z, 53.31
2023-04-29T07:04:48.654Z, 53.17
2023-04-29T07:05:48.642Z, 53.09
2023-04-29T07:06:48.674Z, 52.91
2023-04-29T07:07:48.660Z, 52.79
2023-04-29T07:08:48.750Z, 52.77
2023-04-29T07:09:48.747Z, 52.66
2023-04-29T07:10:48.780Z, 52.59
2023-04-29T07:11:48.756Z, 52.48
2023-04-29T07:12:48.793Z, 52.47
2023-04-29T07:17:59.782Z, 52.14
2023-04-29T07:18:48.816Z, 51.96
2023-04-29T07:19:48.859Z, 51.91
2023-04-29T07:20:48.817Z, 51.91
2023-04-29T07:21:48.849Z, 51.80
2023-04-29T07:22:48.838Z, 51.75
2023-04-29T07:23:48.917Z, 51.72
2023-04-29T07:24:48.877Z, 51.57
2023-04-29T07:25:48.958Z, 51.46
2023-04-29T07:26:48.945Z, 51.37
2023-04-29T07:27:48.947Z, 51.32
2023-04-29T07:28:48.935Z, 51.22
2023-04-29T07:29:48.934Z, 51.12
2023-04-29T07:30:49.100Z, 51.02
2023-04-29T07:31:48.977Z, 50.91
2023-04-29T07:32:49.067Z, 50.86
2023-04-29T07:33:49.012Z, 50.72
2023-04-29T07:34:49.039Z, 50.69
2023-04-29T07:35:49.024Z, 50.61
2023-04-29T07:36:49.013Z, 50.46
2023-04-29T07:37:49.103Z, 50.40
2023-04-29T07:38:49.056Z, 50.36
2023-04-29T07:39:49.090Z, 50.27
2023-04-29T07:40:49.091Z, 50.17
2023-04-29T07:41:49.097Z, 50.13
2023-04-29T07:42:49.129Z, 50.11
2023-04-29T07:43:49.110Z, 50.08
2023-04-29T07:44:49.161Z, 50.08
2023-04-29T07:45:49.214Z, 49.98
2023-04-29T07:46:49.165Z, 49.94
2023-04-29T07:47:49.165Z, 49.90
2023-04-29T07:48:49.140Z, 49.84
2023-04-29T07:49:49.162Z, 49.73
2023-04-29T07:50:49.177Z, 49.68
2023-04-29T07:51:49.164Z, 49.65
2023-04-29T07:52:49.180Z, 49.66
2023-04-29T07:53:49.271Z, 49.59
2023-04-29T07:54:49.229Z, 49.49
2023-04-29T07:55:49.301Z, 49.50
2023-04-29T07:56:49.290Z, 49.40
2023-04-29T07:57:49.314Z, 49.36
2023-04-29T07:58:49.292Z, 49.25
2023-04-29T07:59:49.349Z, 49.24
2023-04-29T08:00:49.333Z, 49.24
2023-04-29T08:01:49.316Z, 49.13
2023-04-29T08:02:49.381Z, 49.20
2023-04-29T08:03:49.464Z, 49.09
2023-04-29T08:04:49.667Z, 49.03
2023-04-29T08:05:49.464Z, 48.99
2023-04-29T08:06:49.372Z, 49.05
2023-04-29T08:07:49.374Z, 49.02
2023-04-29T08:08:49.364Z, 48.92
2023-04-29T08:09:49.433Z, 48.81
2023-04-29T08:10:49.418Z, 48.78
2023-04-29T08:11:49.417Z, 48.89
2023-04-29T08:12:49.413Z, 48.82
2023-04-29T08:13:49.426Z, 48.78
2023-04-29T08:14:49.499Z, 48.67
2023-04-29T08:15:49.516Z, 48.59
2023-04-29T08:16:49.565Z, 48.63
2023-04-29T08:17:49.637Z, 48.61
2023-04-29T08:18:49.568Z, 48.43
2023-04-29T08:19:49.542Z, 48.41
2023-04-29T08:20:49.598Z, 48.34
2023-04-29T08:21:49.599Z, 48.36
2023-04-29T08:22:49.587Z, 48.26
2023-04-29T08:23:49.597Z, 48.25
2023-04-29T08:24:49.573Z, 48.24
2023-04-29T08:25:49.626Z, 48.21
2023-04-29T08:26:49.598Z, 48.07
2023-04-29T08:27:49.622Z, 48.04
2023-04-29T08:28:49.906Z, 48.01
2023-04-29T08:29:49.655Z, 47.95
2023-04-29T08:30:49.645Z, 47.96
2023-04-29T08:31:49.737Z, 47.98
2023-04-29T08:32:49.707Z, 47.84
2023-04-29T08:33:49.714Z, 47.81
2023-04-29T08:34:49.701Z, 47.85
2023-04-29T08:35:49.706Z, 47.80
2023-04-29T08:36:49.720Z, 47.71
2023-04-29T08:37:49.750Z, 47.70
2023-04-29T08:38:49.760Z, 47.67
2023-04-29T08:39:49.797Z, 47.60
2023-04-29T08:40:49.848Z, 47.59
2023-04-29T08:41:49.852Z, 47.56
2023-04-29T08:42:49.901Z, 47.52
2023-04-29T08:43:49.880Z, 47.46
2023-04-29T08:44:49.872Z, 47.40
2023-04-29T08:45:49.907Z, 47.38
2023-04-29T08:46:49.877Z, 47.33
2023-04-29T08:47:49.955Z, 47.23
2023-04-29T08:48:49.945Z, 47.17
2023-04-29T08:49:49.894Z, 47.20
2023-04-29T08:50:49.899Z, 47.14
2023-04-29T08:51:50.002Z, 47.03
2023-04-29T08:52:49.979Z, 46.95
2023-04-29T08:53:50.045Z, 46.93
2023-04-29T08:54:50.132Z, 46.87
2023-04-29T08:55:50.006Z, 46.85
2023-04-29T08:56:50.300Z, 46.91
2023-04-29T08:57:50.030Z, 46.74
2023-04-29T08:58:50.020Z, 46.69
2023-04-29T08:59:50.074Z, 46.72
2023-04-29T09:00:50.093Z, 46.61
2023-04-29T09:01:50.089Z, 46.56
2023-04-29T09:02:50.238Z, 46.51
2023-04-29T09:03:50.434Z, 46.55
2023-04-29T09:04:50.145Z, 46.53
2023-04-29T09:05:50.083Z, 46.46
2023-04-29T09:06:50.095Z, 46.46
2023-04-29T09:07:50.105Z, 46.40
2023-04-29T09:08:50.154Z, 46.42
2023-04-29T09:09:50.179Z, 46.37
2023-04-29T09:10:50.228Z, 46.30
2023-04-29T09:11:50.220Z, 46.30
2023-04-29T09:12:50.262Z, 46.26
2023-04-29T09:13:50.226Z, 46.19
2023-04-29T09:14:50.573Z, 46.22
2023-04-29T09:15:50.258Z, 46.16
2023-04-29T09:16:50.311Z, 46.06
2023-04-29T09:17:50.302Z, 46.00
2023-04-29T09:18:50.277Z, 45.98
2023-04-29T09:19:50.330Z, 45.95
2023-04-29T09:20:50.291Z, 45.97
2023-04-29T09:21:50.382Z, 45.91
2023-04-29T09:22:50.341Z, 45.84
2023-04-29T09:23:50.345Z, 45.84
2023-04-29T09:24:50.684Z, 45.87
2023-04-29T09:25:50.370Z, 45.79
2023-04-29T09:26:51.835Z, 45.70
2023-04-29T09:27:50.377Z, 45.63
2023-04-29T09:28:50.390Z, 45.53
2023-04-29T09:29:50.388Z, 45.49
2023-04-29T09:30:50.399Z, 45.53
2023-04-29T09:31:50.460Z, 45.54
2023-04-29T09:32:50.434Z, 45.47
2023-04-29T09:33:50.504Z, 45.46
2023-04-29T09:34:50.730Z, 45.45
2023-04-29T09:35:50.508Z, 45.41
2023-04-29T09:36:50.467Z, 45.30
2023-04-29T09:37:50.534Z, 45.34
2023-04-29T09:38:50.511Z, 45.26
2023-04-29T09:39:50.588Z, 45.19
2023-04-29T09:40:58.141Z, 45.14
2023-04-29T09:41:50.590Z, 45.15
2023-04-29T09:42:50.555Z, 45.14
2023-04-29T09:43:50.564Z, 45.11
2023-04-29T09:44:50.706Z, 45.04
2023-04-29T09:45:50.637Z, 45.03
2023-04-29T09:46:50.601Z, 45.02
2023-04-29T09:47:50.603Z, 45.00
2023-04-29T09:48:50.685Z, 44.98
2023-04-29T09:49:50.646Z, 44.98
2023-04-29T09:50:50.701Z, 45.00
2023-04-29T09:51:50.675Z, 45.01
2023-04-29T09:52:50.712Z, 44.93
2023-04-29T09:53:50.699Z, 44.96
2023-04-29T09:54:50.788Z, 45.03
2023-04-29T09:55:50.701Z, 44.90
2023-04-29T09:56:50.771Z, 44.89
2023-04-29T09:57:50.782Z, 44.82
2023-04-29T09:58:50.760Z, 44.79
2023-04-29T09:59:50.771Z, 44.79
2023-04-29T10:00:50.776Z, 44.85
2023-04-29T10:01:50.821Z, 46.25
2023-04-29T10:02:50.843Z, 46.93
2023-04-29T10:03:50.955Z, 46.99
2023-04-29T10:04:51.015Z, 47.01
2023-04-29T10:05:50.892Z, 46.87
2023-04-29T10:06:50.901Z, 46.57
2023-04-29T10:07:50.938Z, 46.01
2023-04-29T10:08:50.938Z, 45.24
2023-04-29T10:09:50.934Z, 44.25
2023-04-29T10:10:50.916Z, 43.17
2023-04-29T10:11:50.916Z, 42.06
2023-04-29T10:12:50.927Z, 41.02
2023-04-29T10:13:50.943Z, 40.13
2023-04-29T10:14:51.172Z, 39.40
2023-04-29T10:15:51.003Z, 38.79
2023-04-29T10:16:50.994Z, 38.34
2023-04-29T10:17:50.977Z, 37.95
2023-04-29T10:18:51.036Z, 37.59
2023-04-29T10:19:50.995Z, 37.26
2023-04-29T10:20:51.040Z, 36.98
2023-04-29T10:21:51.015Z, 36.73
2023-04-29T10:22:51.028Z, 36.48
2023-04-29T10:23:51.041Z, 36.27
2023-04-29T10:24:51.215Z, 36.03
2023-04-29T10:25:51.147Z, 35.80
2023-04-29T10:26:51.065Z, 35.64
2023-04-29T10:27:51.163Z, 35.46
2023-04-29T10:28:51.168Z, 35.34
2023-04-29T10:29:51.134Z, 35.19
2023-04-29T10:30:51.145Z, 35.09
2023-04-29T10:31:51.222Z, 35.03
2023-04-29T10:32:52.548Z, 34.92
2023-04-29T10:33:51.196Z, 34.86
2023-04-29T10:34:51.351Z, 34.72
2023-04-29T10:35:51.239Z, 34.53
2023-04-29T10:36:51.297Z, 34.39
2023-04-29T10:37:51.314Z, 34.25
2023-04-29T10:38:51.293Z, 34.11
2023-04-29T10:39:51.278Z, 33.99
2023-04-29T10:40:51.278Z, 33.89
2023-04-29T10:41:51.285Z, 33.79
2023-04-29T10:42:51.299Z, 33.72
2023-04-29T10:43:51.380Z, 33.65
2023-04-29T10:44:51.507Z, 33.60
2023-04-29T10:45:51.355Z, 33.55
2023-04-29T10:46:51.390Z, 33.49
2023-04-29T10:47:51.453Z, 33.44
2023-04-29T10:48:51.394Z, 33.41
2023-04-29T10:49:51.381Z, 33.37
2023-04-29T10:50:51.388Z, 33.35
2023-04-29T10:51:51.393Z, 33.31
2023-04-29T10:52:51.409Z, 33.27
2023-04-29T10:53:51.507Z, 33.25
2023-04-29T10:54:51.661Z, 33.22
2023-04-29T10:55:51.453Z, 33.22
2023-04-29T10:56:51.457Z, 33.17
2023-04-29T10:57:51.466Z, 33.13
2023-04-29T10:58:51.485Z, 33.11
2023-04-29T10:59:51.578Z, 33.07
2023-04-29T11:00:51.678Z, 33.04
2023-04-29T11:01:51.594Z, 33.03
2023-04-29T11:02:51.721Z, 33.00
2023-04-29T11:03:51.940Z, 32.95
2023-04-29T11:04:52.035Z, 32.93
2023-04-29T11:05:51.604Z, 32.94
2023-04-29T11:06:51.614Z, 32.93
2023-04-29T11:07:51.669Z, 32.89
2023-04-29T11:08:51.647Z, 32.87
2023-04-29T11:09:51.852Z, 32.82
2023-04-29T11:10:51.643Z, 32.82
2023-04-29T11:11:51.658Z, 32.80
2023-04-29T11:12:51.720Z, 32.78
2023-04-29T11:13:51.721Z, 32.76
2023-04-29T11:14:51.991Z, 32.73
2023-04-29T11:15:51.747Z, 32.73
2023-04-29T11:16:51.906Z, 32.73
2023-04-29T11:17:51.769Z, 32.71
2023-04-29T11:18:51.754Z, 32.67
2023-04-29T11:19:51.861Z, 32.66
2023-04-29T11:20:51.773Z, 32.66
2023-04-29T11:21:51.780Z, 32.64
2023-04-29T11:22:51.816Z, 32.65
2023-04-29T11:23:51.822Z, 32.61
2023-04-29T11:24:52.119Z, 32.61
2023-04-29T11:25:51.881Z, 32.57
2023-04-29T11:26:51.866Z, 32.54
2023-04-29T11:27:51.915Z, 32.53
2023-04-29T11:28:51.896Z, 32.51
2023-04-29T11:29:51.960Z, 32.53
2023-04-29T11:30:51.921Z, 32.50
2023-04-29T11:31:52.054Z, 32.46
2023-04-29T11:32:52.110Z, 32.45
2023-04-29T11:33:51.921Z, 32.48
2023-04-29T11:34:52.046Z, 32.49
2023-04-29T11:35:51.951Z, 32.46
2023-04-29T11:36:52.005Z, 32.41
2023-04-29T11:37:51.974Z, 32.40
2023-04-29T11:38:51.967Z, 32.39
2023-04-29T11:39:51.992Z, 32.36
2023-04-29T11:40:52.010Z, 32.34
2023-04-29T11:41:52.767Z, 32.32
2023-04-29T11:42:52.093Z, 32.31
2023-04-29T11:43:52.144Z, 32.32
2023-04-29T11:44:52.341Z, 32.31
2023-04-29T11:45:52.143Z, 32.29
2023-04-29T11:46:52.121Z, 32.30
2023-04-29T11:47:54.162Z, 32.31
2023-04-29T11:48:52.158Z, 32.28
2023-04-29T11:49:52.173Z, 32.27
2023-04-29T11:50:52.172Z, 32.24
2023-04-29T11:51:52.187Z, 32.22
2023-04-29T11:52:52.214Z, 32.20
2023-04-29T11:53:52.202Z, 32.23
2023-04-29T11:54:52.379Z, 32.21
2023-04-29T11:55:52.232Z, 32.20
2023-04-29T11:56:52.306Z, 32.18
2023-04-29T11:57:52.404Z, 32.20
2023-04-29T11:58:52.285Z, 32.19
2023-04-29T11:59:52.285Z, 32.15
2023-04-29T12:00:52.290Z, 32.14
2023-04-29T12:01:52.280Z, 32.11
2023-04-29T12:02:52.430Z, 32.06
2023-04-29T12:03:52.597Z, 32.05
2023-04-29T12:04:52.506Z, 32.06
2023-04-29T12:05:52.452Z, 32.04
2023-04-29T12:06:52.366Z, 32.03
2023-04-29T12:07:52.368Z, 32.04
2023-04-29T12:08:52.443Z, 32.03
2023-04-29T12:09:52.406Z, 32.00
2023-04-29T12:10:52.414Z, 31.99
2023-04-29T12:11:52.405Z, 32.01
2023-04-29T12:12:52.409Z, 32.00
2023-04-29T12:13:52.422Z, 32.01
2023-04-29T12:14:52.940Z, 32.00
2023-04-29T12:15:52.525Z, 31.99
2023-04-29T12:16:52.498Z, 31.97
2023-04-29T12:17:52.530Z, 31.94
2023-04-29T12:18:52.504Z, 31.87
2023-04-29T12:19:52.502Z, 31.89
2023-04-29T12:20:52.530Z, 31.86
2023-04-29T12:21:52.608Z, 31.88
2023-04-29T12:22:52.581Z, 31.89
2023-04-29T12:23:52.656Z, 31.89
2023-04-29T12:24:52.943Z, 31.85
2023-04-29T12:25:52.630Z, 31.83
2023-04-29T12:26:52.617Z, 31.86
2023-04-29T12:27:52.663Z, 31.88
2023-04-29T12:28:52.626Z, 31.86
2023-04-29T12:29:52.705Z, 31.83
2023-04-29T12:30:52.672Z, 31.78
2023-04-29T12:31:53.013Z, 31.76
2023-04-29T12:32:52.742Z, 31.75